createdAt,value
2022-07-28T00:00:56.625Z,19.40
2022-07-28T00:03:23.583Z,19.40
2022-07-28T00:05:50.305Z,19.40
2022-07-28T00:08:17.156Z,19.30
2022-07-28T00:10:44.016Z,19.30
2022-07-28T00:13:10.679Z,19.30
2022-07-28T00:15:37.661Z,19.20
2022-07-28T00:18:04.387Z,19.20
2022-07-28T00:20:31.193Z,19.20
2022-07-28T00:22:57.887Z,19.10
2022-07-28T00:25:24.727Z,19.10
2022-07-28T00:27:51.431Z,19.10
2022-07-28T00:30:18.692Z,19.06
2022-07-28T00:32:46.604Z,19.00
2022-07-28T00:35:13.480Z,19.00
2022-07-28T00:37:41.700Z,19.00
2022-07-28T00:40:10.306Z,18.94
2022-07-28T00:42:37.452Z,18.90
2022-07-28T00:45:05.094Z,18.90
2022-07-28T00:47:33.907Z,18.90
2022-07-28T00:50:02.957Z,18.80
2022-07-28T00:52:29.992Z,18.80
2022-07-28T00:54:58.716Z,18.80
2022-07-28T00:57:25.410Z,18.80
2022-07-28T00:59:52.147Z,18.70
2022-07-28T01:02:19.266Z,18.70
2022-07-28T01:04:46.720Z,18.70
2022-07-28T01:07:28.236Z,18.60
2022-07-28T01:10:14.224Z,18.60
2022-07-28T01:13:04.136Z,18.50
2022-07-28T01:15:42.420Z,18.50
2022-07-28T01:18:19.091Z,18.50
2022-07-28T01:20:50.576Z,18.44
2022-07-28T01:23:32.199Z,18.40
2022-07-28T01:26:11.047Z,18.40
2022-07-28T01:29:11.531Z,18.34
2022-07-28T01:31:43.720Z,18.30
2022-07-28T01:34:20.219Z,18.30
2022-07-28T01:37:04.805Z,18.30
2022-07-28T01:39:35.421Z,18.30
2022-07-28T01:42:06.175Z,18.30
2022-07-28T01:44:38.299Z,18.28
2022-07-28T01:47:07.757Z,18.20
2022-07-28T01:49:37.125Z,18.20
2022-07-28T01:52:08.673Z,18.24
2022-07-28T01:54:40.970Z,18.20
2022-07-28T01:57:11.018Z,18.20
2022-07-28T01:59:40.424Z,18.20
2022-07-28T02:02:09.169Z,18.20
2022-07-28T02:04:39.943Z,18.20
2022-07-28T02:07:08.901Z,18.20
2022-07-28T02:09:36.711Z,18.12
2022-07-28T02:12:05.055Z,18.14
2022-07-28T02:14:35.159Z,18.14
2022-07-28T02:17:11.224Z,18.10
2022-07-28T02:19:40.808Z,18.10
2022-07-28T02:22:09.247Z,18.10
2022-07-28T02:24:36.764Z,18.10
2022-07-28T02:27:32.739Z,18.10
2022-07-28T02:30:06.472Z,18.10
2022-07-28T02:32:56.812Z,18.10
2022-07-28T02:35:58.744Z,18.00
2022-07-28T02:38:47.420Z,18.00
2022-07-28T02:41:38.504Z,18.00
2022-07-28T02:44:16.318Z,18.00
2022-07-28T02:46:49.507Z,17.96
2022-07-28T02:49:31.636Z,17.90
2022-07-28T02:52:00.664Z,17.90
2022-07-28T02:54:29.076Z,17.90
2022-07-28T02:56:58.745Z,17.90
2022-07-28T02:59:27.768Z,17.88
2022-07-28T03:01:56.101Z,17.82
2022-07-28T03:04:43.338Z,17.80
2022-07-28T03:07:10.946Z,17.80
2022-07-28T03:09:45.773Z,17.80
2022-07-28T03:12:13.061Z,17.74
2022-07-28T03:14:40.488Z,17.70
2022-07-28T03:17:07.716Z,17.70
2022-07-28T03:19:35.147Z,17.70
2022-07-28T03:22:02.061Z,17.70
2022-07-28T03:24:35.873Z,17.70
2022-07-28T03:27:37.751Z,17.70
2022-07-28T03:30:13.502Z,17.62
2022-07-28T03:32:49.723Z,17.60
2022-07-28T03:35:17.561Z,17.60
2022-07-28T03:38:06.033Z,17.60
2022-07-28T03:40:33.995Z,17.60
2022-07-28T03:43:06.451Z,17.54
2022-07-28T03:45:33.895Z,17.50
2022-07-28T03:48:01.717Z,17.50
2022-07-28T03:50:31.415Z,17.50
2022-07-28T03:53:00.005Z,17.50
2022-07-28T03:55:27.288Z,17.50
2022-07-28T03:57:54.029Z,17.40
2022-07-28T04:00:21.615Z,17.40
2022-07-28T04:02:48.394Z,17.40
2022-07-28T04:05:17.468Z,17.40
2022-07-28T04:07:46.030Z,17.40
2022-07-28T04:10:15.619Z,17.40
2022-07-28T04:12:56.936Z,17.40
2022-07-28T04:15:26.163Z,17.40
2022-07-28T04:17:54.977Z,17.42
2022-07-28T04:20:24.896Z,17.40
2022-07-28T04:22:52.657Z,17.40
2022-07-28T04:25:22.910Z,17.40
2022-07-28T04:27:49.681Z,17.40
2022-07-28T04:30:21.217Z,17.46
2022-07-28T04:32:50.295Z,17.50
2022-07-28T04:35:19.350Z,17.48
2022-07-28T04:37:48.675Z,17.40
2022-07-28T04:40:15.606Z,17.40
2022-07-28T04:42:43.784Z,17.40
2022-07-28T04:45:13.570Z,17.40
2022-07-28T04:47:40.717Z,17.40
2022-07-28T04:50:10.245Z,17.40
2022-07-28T04:52:38.502Z,17.40
2022-07-28T04:55:06.907Z,17.42
2022-07-28T04:57:33.952Z,17.48
2022-07-28T05:00:01.282Z,17.50
2022-07-28T05:02:28.123Z,17.50
2022-07-28T05:04:54.841Z,17.50
2022-07-28T05:07:21.572Z,17.50
2022-07-28T05:09:48.593Z,17.52
2022-07-28T05:12:15.384Z,17.60
2022-07-28T05:14:42.106Z,17.60
2022-07-28T05:17:09.153Z,17.66
2022-07-28T05:19:36.757Z,17.64
2022-07-28T05:22:04.756Z,17.70
2022-07-28T05:24:31.716Z,17.70
2022-07-28T05:26:59.143Z,17.80
2022-07-28T05:29:25.929Z,17.80
2022-07-28T05:32:17.551Z,17.90
2022-07-28T05:34:45.754Z,17.90
2022-07-28T05:37:12.589Z,18.00
2022-07-28T05:39:39.287Z,18.08
2022-07-28T05:42:06.398Z,18.10
2022-07-28T05:44:37.847Z,18.20
2022-07-28T05:47:06.349Z,18.30
2022-07-28T05:49:33.647Z,18.40
2022-07-28T05:52:00.437Z,18.50
2022-07-28T05:54:27.323Z,18.58
2022-07-28T05:56:54.047Z,18.60
2022-07-28T05:59:20.784Z,18.60
2022-07-28T06:01:47.692Z,18.70
2022-07-28T06:04:26.423Z,18.84
2022-07-28T06:06:54.839Z,18.98
2022-07-28T06:09:21.526Z,19.18
2022-07-28T06:11:50.389Z,20.40
2022-07-28T06:14:18.294Z,21.92
2022-07-28T06:16:45.452Z,23.32
2022-07-28T06:19:12.226Z,24.58
2022-07-28T06:21:38.954Z,25.70
2022-07-28T06:24:08.696Z,26.74
2022-07-28T06:26:43.629Z,27.76
2022-07-28T06:29:12.375Z,28.54
2022-07-28T06:31:40.172Z,29.26
2022-07-28T06:34:07.101Z,29.94
2022-07-28T06:36:34.225Z,30.64
2022-07-28T06:39:00.914Z,31.08
2022-07-28T06:41:28.069Z,31.40
2022-07-28T06:43:54.841Z,31.90
2022-07-28T06:46:22.235Z,32.30
2022-07-28T06:48:49.086Z,32.60
2022-07-28T06:51:19.179Z,32.14
2022-07-28T06:53:48.516Z,32.56
2022-07-28T06:56:16.379Z,33.18
2022-07-28T06:58:46.855Z,33.40
2022-07-28T07:01:15.894Z,33.80
2022-07-28T07:03:43.576Z,34.30
2022-07-28T07:06:11.183Z,34.90
2022-07-28T07:08:38.459Z,35.32
2022-07-28T07:11:05.304Z,35.72
2022-07-28T07:13:33.133Z,35.70
2022-07-28T07:16:00.339Z,35.62
2022-07-28T07:18:27.445Z,35.50
2022-07-28T07:20:54.877Z,35.70
2022-07-28T07:23:21.911Z,35.30
2022-07-28T07:25:49.545Z,35.46
2022-07-28T07:28:16.188Z,35.70
2022-07-28T07:30:43.557Z,35.58
2022-07-28T07:33:10.535Z,35.90
2022-07-28T07:35:38.429Z,36.10
2022-07-28T07:38:05.885Z,36.00
2022-07-28T07:40:32.701Z,36.30
2022-07-28T07:42:59.530Z,36.88
2022-07-28T07:45:26.860Z,36.58
2022-07-28T07:47:53.550Z,36.00
2022-07-28T07:50:20.291Z,35.98
2022-07-28T07:52:49.863Z,35.80
2022-07-28T07:55:17.428Z,36.48
2022-07-28T07:57:44.731Z,35.92
2022-07-28T08:00:28.008Z,35.80
2022-07-28T08:02:58.460Z,36.00
2022-07-28T08:05:35.523Z,36.40
2022-07-28T08:08:05.322Z,36.90
2022-07-28T08:10:36.676Z,37.88
2022-07-28T08:13:06.268Z,38.42
2022-07-28T08:15:34.330Z,38.90
2022-07-28T08:18:02.228Z,39.20
2022-07-28T08:20:29.499Z,39.22
2022-07-28T08:22:57.720Z,38.04
2022-07-28T08:25:25.187Z,37.40
2022-07-28T08:27:51.847Z,37.44
2022-07-28T08:30:21.682Z,37.40
2022-07-28T08:32:57.002Z,37.24
2022-07-28T08:35:34.994Z,36.70
2022-07-28T08:38:04.575Z,36.70
2022-07-28T08:40:34.900Z,37.16
2022-07-28T08:43:20.977Z,38.24
2022-07-28T08:45:50.738Z,38.54
2022-07-28T08:48:23.281Z,38.90
2022-07-28T08:50:51.759Z,39.30
2022-07-28T08:53:21.021Z,38.86
2022-07-28T08:55:49.842Z,38.46
2022-07-28T08:58:17.920Z,38.98
2022-07-28T09:00:44.875Z,39.36
2022-07-28T09:03:13.130Z,39.46
2022-07-28T09:05:44.125Z,39.00
2022-07-28T09:08:11.957Z,39.28
2022-07-28T09:10:38.897Z,40.00
2022-07-28T09:13:05.674Z,39.76
2022-07-28T09:15:32.924Z,39.40
2022-07-28T09:17:59.720Z,39.34
2022-07-28T09:20:28.221Z,39.30
2022-07-28T09:22:59.288Z,39.62
2022-07-28T09:25:26.896Z,39.82
2022-07-28T09:27:54.945Z,39.64
2022-07-28T09:30:53.219Z,39.40
2022-07-28T09:33:41.005Z,39.20
2022-07-28T09:36:16.081Z,38.76
2022-07-28T09:38:43.068Z,38.10
2022-07-28T09:41:09.872Z,38.24
2022-07-28T09:43:41.866Z,38.30
2022-07-28T09:46:17.200Z,38.40
2022-07-28T09:48:50.555Z,37.62
2022-07-28T09:51:29.199Z,37.24
2022-07-28T09:54:15.537Z,36.86
2022-07-28T09:56:45.591Z,36.40
2022-07-28T09:59:13.983Z,36.08
2022-07-28T10:02:01.681Z,35.70
2022-07-28T10:04:35.070Z,35.70
2022-07-28T10:07:03.951Z,35.04
2022-07-28T10:09:30.668Z,34.38
2022-07-28T10:12:35.452Z,33.94
2022-07-28T10:15:36.572Z,33.22
2022-07-28T10:18:06.036Z,32.82
2022-07-28T10:20:34.208Z,32.40
2022-07-28T10:23:06.282Z,32.00
2022-07-28T10:25:34.916Z,31.74
2022-07-28T10:28:04.181Z,31.60
2022-07-28T10:30:38.100Z,31.50
2022-07-28T10:33:14.407Z,31.40
2022-07-28T10:35:49.613Z,31.20
2022-07-28T10:38:27.266Z,31.20
2022-07-28T10:40:58.543Z,31.12
2022-07-28T10:43:26.685Z,30.90
2022-07-28T10:46:05.525Z,30.70
2022-07-28T10:48:37.010Z,30.60
2022-07-28T10:51:04.367Z,30.50
2022-07-28T10:53:57.222Z,30.28
2022-07-28T10:56:47.027Z,30.02
2022-07-28T10:59:42.303Z,29.70
2022-07-28T11:02:09.080Z,29.40
2022-07-28T11:04:46.199Z,29.40
2022-07-28T11:07:15.656Z,29.30
2022-07-28T11:09:43.225Z,29.30
2022-07-28T11:12:15.930Z,29.20
2022-07-28T11:14:44.689Z,29.20
2022-07-28T11:17:16.117Z,29.28
2022-07-28T11:22:33.941Z,29.30
2022-07-28T11:25:18.575Z,29.40
2022-07-28T11:27:51.687Z,29.20
2022-07-28T11:30:18.658Z,29.10
2022-07-28T11:32:51.567Z,29.00
2022-07-28T11:35:23.300Z,28.90
2022-07-28T11:38:02.391Z,28.80
2022-07-28T11:40:42.087Z,28.70
2022-07-28T11:43:22.017Z,28.70
2022-07-28T11:46:01.605Z,28.60
2022-07-28T11:48:30.869Z,28.70
2022-07-28T11:51:03.486Z,28.80
2022-07-28T11:53:35.707Z,28.80
2022-07-28T11:56:11.399Z,28.78
2022-07-28T11:58:38.871Z,28.60
2022-07-28T12:01:20.842Z,28.60
2022-07-28T12:03:54.952Z,28.50
2022-07-28T12:06:28.499Z,28.42
2022-07-28T12:09:06.606Z,28.50
2022-07-28T12:11:41.106Z,28.60
2022-07-28T12:14:14.868Z,28.60
2022-07-28T12:16:45.010Z,28.60
2022-07-28T12:19:16.100Z,28.60
2022-07-28T12:21:48.334Z,28.70
2022-07-28T12:24:30.230Z,28.60
2022-07-28T12:26:58.328Z,28.70
2022-07-28T12:29:35.437Z,28.80
2022-07-28T12:32:06.494Z,28.80
2022-07-28T12:34:36.308Z,28.70
2022-07-28T12:37:05.844Z,28.58
2022-07-28T12:39:39.514Z,28.60
2022-07-28T12:42:11.403Z,28.60
2022-07-28T12:44:44.373Z,28.70
2022-07-28T12:47:13.620Z,28.80
2022-07-28T12:49:45.082Z,28.88
2022-07-28T12:52:23.873Z,28.80
2022-07-28T12:54:54.671Z,28.80
2022-07-28T12:57:50.306Z,28.80
2022-07-28T13:00:31.730Z,28.90
2022-07-28T13:03:01.309Z,28.90
2022-07-28T13:05:59.802Z,28.90
2022-07-28T13:08:29.339Z,28.80
2022-07-28T13:10:58.829Z,28.80
2022-07-28T13:13:27.265Z,28.86
2022-07-28T13:16:23.712Z,28.90
2022-07-28T13:19:00.746Z,28.86
2022-07-28T13:21:38.418Z,28.90
2022-07-28T13:24:05.556Z,28.90
2022-07-28T13:26:32.191Z,29.00
2022-07-28T13:29:12.866Z,29.10
2022-07-28T13:31:41.099Z,29.30
2022-07-28T13:34:10.119Z,29.30
2022-07-28T13:36:38.673Z,29.30
2022-07-28T13:39:07.491Z,29.10
2022-07-28T13:41:56.552Z,29.10
2022-07-28T13:44:21.360Z,29.10
2022-07-28T13:46:50.036Z,29.10
2022-07-28T13:49:17.301Z,29.02
2022-07-28T13:51:48.701Z,29.00
2022-07-28T13:54:18.287Z,29.10
2022-07-28T13:56:45.636Z,29.20
2022-07-28T13:59:31.265Z,29.12
2022-07-28T14:02:02.589Z,29.14
2022-07-28T14:04:29.242Z,29.20
2022-07-28T14:06:55.881Z,29.20
2022-07-28T14:09:23.070Z,29.26
2022-07-28T14:11:53.714Z,29.30
2022-07-28T14:14:25.292Z,29.40
2022-07-28T14:16:54.499Z,29.40
2022-07-28T14:19:38.996Z,29.40
2022-07-28T14:22:13.765Z,29.40
2022-07-28T14:24:42.381Z,29.46
2022-07-28T14:27:11.001Z,29.30
2022-07-28T14:29:39.117Z,29.20
2022-07-28T14:32:06.774Z,29.20
2022-07-28T14:34:34.532Z,29.10
2022-07-28T14:37:03.398Z,29.10
2022-07-28T14:39:35.512Z,29.04
2022-07-28T14:42:02.159Z,29.12
2022-07-28T14:44:28.844Z,29.20
2022-07-28T14:46:55.702Z,29.24
2022-07-28T14:49:22.485Z,29.30
2022-07-28T14:51:50.521Z,29.30
2022-07-28T14:54:17.667Z,29.20
2022-07-28T14:56:44.551Z,29.20
2022-07-28T14:59:11.255Z,29.30
2022-07-28T15:01:38.054Z,29.30
2022-07-28T15:04:05.250Z,29.30
2022-07-28T15:06:31.869Z,29.20
2022-07-28T15:08:58.658Z,29.20
2022-07-28T15:11:26.117Z,29.10
2022-07-28T15:13:53.020Z,29.06
2022-07-28T15:16:19.739Z,29.10
2022-07-28T15:18:46.428Z,29.10
2022-07-28T15:21:16.630Z,29.10
2022-07-28T15:23:44.556Z,29.10
2022-07-28T15:26:11.837Z,29.08
2022-07-28T15:28:38.650Z,29.00
2022-07-28T15:31:08.488Z,28.96
2022-07-28T15:33:45.341Z,28.90
2022-07-28T15:36:14.839Z,28.90
2022-07-28T15:38:41.597Z,28.90
2022-07-28T15:41:08.278Z,28.90
2022-07-28T15:43:35.023Z,28.88
2022-07-28T15:46:09.451Z,28.80
2022-07-28T15:48:40.897Z,28.70
2022-07-28T15:51:08.353Z,28.70
2022-07-28T15:53:36.672Z,28.70
2022-07-28T15:56:04.984Z,28.70
2022-07-28T15:58:31.771Z,28.60
2022-07-28T16:00:59.281Z,28.52
2022-07-28T16:03:28.760Z,28.50
2022-07-28T16:05:55.576Z,28.40
2022-07-28T16:08:23.456Z,28.40
2022-07-28T16:10:54.320Z,28.40
2022-07-28T16:13:28.698Z,28.30
2022-07-28T16:16:10.263Z,28.30
2022-07-28T16:18:39.808Z,28.30
2022-07-28T16:21:08.551Z,28.20
2022-07-28T16:23:36.261Z,28.20
2022-07-28T16:26:07.780Z,28.20
2022-07-28T16:28:35.833Z,28.12
2022-07-28T16:31:02.603Z,28.10
2022-07-28T16:33:33.644Z,28.10
2022-07-28T16:36:02.099Z,28.06
2022-07-28T16:38:28.806Z,28.00
2022-07-28T16:40:57.167Z,27.90
2022-07-28T16:43:23.913Z,27.80
2022-07-28T16:45:50.654Z,27.80
2022-07-28T16:48:17.317Z,27.80
2022-07-28T16:50:46.176Z,27.80
2022-07-28T16:53:14.018Z,27.80
2022-07-28T16:55:42.208Z,27.70
2022-07-28T16:58:09.130Z,27.70
2022-07-28T17:00:36.017Z,27.70
2022-07-28T17:03:03.090Z,27.60
2022-07-28T17:05:29.795Z,27.60
2022-07-28T17:07:56.505Z,27.60
2022-07-28T17:10:27.298Z,27.50
2022-07-28T17:12:55.160Z,27.44
2022-07-28T17:15:23.273Z,27.40
2022-07-28T17:17:55.907Z,27.40
2022-07-28T17:20:24.420Z,27.40
2022-07-28T17:22:51.469Z,27.40
2022-07-28T17:28:06.105Z,27.30
2022-07-28T17:30:33.858Z,27.20
2022-07-28T17:33:08.056Z,27.20
2022-07-28T17:35:36.751Z,27.10
2022-07-28T17:38:06.896Z,27.10
2022-07-28T17:40:34.092Z,27.08
2022-07-28T17:43:00.848Z,27.00
2022-07-28T17:45:27.718Z,27.00
2022-07-28T17:47:54.412Z,27.00
2022-07-28T17:50:21.133Z,27.00
2022-07-28T17:52:48.432Z,27.00
2022-07-28T17:55:40.816Z,26.98
2022-07-28T17:58:33.590Z,26.90
2022-07-28T18:01:12.847Z,26.88
2022-07-28T18:03:59.761Z,26.86
2022-07-28T18:06:34.865Z,26.90
2022-07-28T18:09:10.602Z,26.84
2022-07-28T18:11:56.939Z,26.80
2022-07-28T18:14:30.154Z,26.80
2022-07-28T18:16:58.304Z,26.72
2022-07-28T18:19:26.855Z,26.70
2022-07-28T18:21:53.808Z,26.70
2022-07-28T18:24:22.537Z,26.68
2022-07-28T18:26:53.174Z,26.68
2022-07-28T18:29:21.474Z,26.60
2022-07-28T18:31:51.374Z,26.60
2022-07-28T18:34:19.393Z,26.60
2022-07-28T18:36:50.831Z,26.50
2022-07-28T18:39:17.696Z,26.50
2022-07-28T18:41:46.304Z,26.50
2022-07-28T18:44:14.053Z,26.40
2022-07-28T18:46:41.043Z,26.40
2022-07-28T18:49:07.840Z,26.30
2022-07-28T18:51:34.542Z,26.30
2022-07-28T18:54:01.253Z,26.30
2022-07-28T18:56:27.903Z,26.22
2022-07-28T18:58:56.093Z,26.20
2022-07-28T19:01:23.537Z,26.20
2022-07-28T19:03:50.946Z,26.10
2022-07-28T19:06:18.442Z,26.10
2022-07-28T19:08:45.165Z,26.10
2022-07-28T19:11:11.840Z,26.00
2022-07-28T19:13:38.489Z,26.00
2022-07-28T19:16:05.566Z,25.90
2022-07-28T19:18:32.436Z,25.90
2022-07-28T19:20:59.173Z,25.90
2022-07-28T19:23:25.890Z,25.80
2022-07-28T19:25:53.298Z,25.80
2022-07-28T19:28:19.949Z,25.80
2022-07-28T19:30:50.136Z,25.74
2022-07-28T19:33:19.495Z,25.70
2022-07-28T19:35:46.566Z,25.70
2022-07-28T19:38:13.685Z,25.70
2022-07-28T19:40:43.026Z,25.70
2022-07-28T19:43:10.436Z,25.68
2022-07-28T19:45:38.528Z,25.60
2022-07-28T19:48:07.243Z,25.60
2022-07-28T19:50:36.273Z,25.60
2022-07-28T19:53:03.643Z,25.60
2022-07-28T19:55:35.069Z,25.52
2022-07-28T19:58:03.880Z,25.50
2022-07-28T20:00:30.538Z,25.50
2022-07-28T20:02:57.399Z,25.50
2022-07-28T20:05:24.287Z,25.40
2022-07-28T20:07:51.118Z,25.40
2022-07-28T20:10:17.990Z,25.30
2022-07-28T20:12:45.492Z,25.30
2022-07-28T20:15:12.450Z,25.30
2022-07-28T20:17:39.963Z,25.30
2022-07-28T20:20:13.354Z,25.20
2022-07-28T20:22:41.751Z,25.16
2022-07-28T20:25:10.247Z,25.10
2022-07-28T20:27:40.520Z,25.10
2022-07-28T20:30:12.642Z,25.10
2022-07-28T20:32:40.373Z,25.10
2022-07-28T20:35:08.908Z,25.00
2022-07-28T20:37:37.595Z,25.00
2022-07-28T20:40:07.675Z,25.00
2022-07-28T20:42:35.447Z,24.90
2022-07-28T20:45:02.849Z,24.80
2022-07-28T20:47:32.998Z,24.80
2022-07-28T20:50:01.039Z,24.70
2022-07-28T20:52:28.148Z,24.70
2022-07-28T20:54:55.520Z,24.60
2022-07-28T20:57:23.309Z,24.60
2022-07-28T20:59:51.977Z,24.50
2022-07-28T21:02:20.705Z,24.42
2022-07-28T21:04:48.213Z,24.40
2022-07-28T21:08:05.433Z,24.30
2022-07-28T21:10:06.913Z,24.20
2022-07-28T21:12:34.574Z,24.20
2022-07-28T21:15:01.199Z,24.10
2022-07-28T21:17:27.940Z,24.10
2022-07-28T21:19:54.613Z,24.08
2022-07-28T21:22:23.028Z,24.00
2022-07-28T21:24:55.372Z,23.90
2022-07-28T21:27:23.745Z,23.90
2022-07-28T21:32:18.421Z,23.70
2022-07-28T21:34:45.131Z,23.60
2022-07-28T21:37:13.108Z,23.54
2022-07-28T21:39:40.604Z,23.50
2022-07-28T21:42:08.794Z,23.50
2022-07-28T21:44:37.512Z,23.50
2022-07-28T21:47:04.500Z,23.42
2022-07-28T21:49:32.324Z,23.40
2022-07-28T21:51:59.705Z,23.40
2022-07-28T21:54:26.680Z,23.38
2022-07-28T21:56:53.566Z,23.30
2022-07-28T21:59:20.213Z,23.30
2022-07-28T22:01:46.935Z,23.30
2022-07-28T22:04:14.134Z,23.30
2022-07-28T22:06:41.132Z,23.30
2022-07-28T22:09:13.051Z,23.26
2022-07-28T22:11:39.680Z,23.20
2022-07-28T22:14:06.279Z,23.20
2022-07-28T22:16:33.096Z,23.10
2022-07-28T22:18:59.767Z,23.10
2022-07-28T22:21:26.411Z,23.00
2022-07-28T22:23:53.004Z,22.90
2022-07-28T22:26:19.803Z,22.90
2022-07-28T22:28:46.374Z,22.84
2022-07-28T22:31:13.116Z,22.80
2022-07-28T22:33:40.827Z,22.80
2022-07-28T22:36:11.336Z,22.72
2022-07-28T22:38:38.084Z,22.70
2022-07-28T22:41:04.788Z,22.70
2022-07-28T22:43:33.560Z,22.70
2022-07-28T22:46:00.423Z,22.70
2022-07-28T22:48:27.196Z,22.70
2022-07-28T22:50:53.968Z,22.60
2022-07-28T22:53:20.585Z,22.50
2022-07-28T22:55:47.289Z,22.40
2022-07-28T22:58:13.913Z,22.40
2022-07-28T23:00:40.676Z,22.30
2022-07-28T23:03:07.375Z,22.30
2022-07-28T23:05:37.970Z,22.30
2022-07-28T23:08:05.113Z,22.20
2022-07-28T23:10:31.839Z,22.10
2022-07-28T23:12:59.547Z,22.00
2022-07-28T23:15:41.254Z,21.90
2022-07-28T23:18:16.238Z,21.90
2022-07-28T23:20:44.205Z,21.84
2022-07-28T23:23:12.338Z,21.80
2022-07-28T23:25:42.673Z,21.80
2022-07-28T23:28:10.123Z,21.78
2022-07-28T23:30:36.964Z,21.70
2022-07-28T23:33:05.096Z,21.70
2022-07-28T23:35:31.900Z,21.70
2022-07-28T23:37:58.537Z,21.70
2022-07-28T23:40:25.396Z,21.70
2022-07-28T23:42:52.035Z,21.70
2022-07-28T23:45:18.829Z,21.60
2022-07-28T23:47:45.522Z,21.60
2022-07-28T23:50:12.290Z,21.54
2022-07-28T23:52:38.927Z,21.50
2022-07-28T23:55:06.528Z,21.46
2022-07-28T23:57:33.219Z,21.40
